Flight Track Log - Related Links

Times and Time Zones

All times are in EDT time to prevent confusion due to time zone crossing. See the AAL1278 flight status page for this flight to view local times or setup timezone preferences in your user account.

Time Position Orientation Groundspeed Altitude Reporting Facility
EDT Latitude Longitude Course Direction KTS MPH feet Rate Location/Type
Sun 07:35:01 PM 33.9325 -118.4583 54° Northeast 182 209 1,800  Level Los Angeles Center
Sun 07:36:00 PM 34.1226 -118.0882 59° Northeast  Level FlightAware Approximate
Sun 07:36:03 PM 33.9103 -118.5283 249° West 227 261 2,900  Level Los Angeles Center
Sun 07:37:00 PM 34.1856 -117.9623 59° Northeast  Level FlightAware Approximate
Sun 07:37:05 PM 33.8664 -118.6017 234° Southwest 261 300 5,000  Level Los Angeles Center
Sun 07:38:00 PM 34.2486 -117.8362 59° Northeast  Level FlightAware Approximate
Sun 07:38:07 PM 33.8225 -118.5556 139° Southeast 279 321 6,600  Level Los Angeles Center
Sun 07:39:00 PM 34.3271 -117.7244 46° Northeast  Level FlightAware Approximate
Sun 07:39:09 PM 33.8864 -118.4761 46° Northeast 286 329 9,600  Level Los Angeles Center
Sun 07:40:00 PM 34.3930 -117.6006 54° Northeast  Level FlightAware Approximate
Sun 07:40:11 PM 33.9372 -118.4264 39° Northeast 283 326 11,700  Level Los Angeles Center
Sun 07:41:13 PM 33.9989 -118.3153 56° Northeast 326 375 12,800 1,403 Climbing Los Angeles Center
Sun 07:42:15 PM 34.0617 -118.2050 55° Northeast 384 442 14,600 1,984 Climbing Los Angeles Center
Sun 07:43:17 PM 34.1267 -118.0928 55° Northeast 402 463 16,900 2,661 Climbing Los Angeles Center
Sun 07:44:19 PM 34.1908 -117.9778 56° Northeast 411 473 20,100 2,613 Climbing Los Angeles Center
Sun 07:45:21 PM 34.2525 -117.8672 56° Northeast 401 461 22,300 1,872 Climbing Los Angeles Center
Sun 07:46:24 PM 34.3167 -117.7522 56° Northeast 409 471 24,000 788 Climbing Los Angeles Center
Sun 07:47:38 PM 34.4017 -117.5997 56° Northeast 422 486 24,100 838 Climbing Los Angeles Center
Sun 07:48:40 PM 34.4678 -117.4814 56° Northeast 426 490 25,900 1,597 Climbing Los Angeles Center
Sun 07:49:42 PM 34.5342 -117.3597 56° Northeast 434 499 27,400 1,452 Climbing Los Angeles Center
Sun 07:50:44 PM 34.6153 -117.2117 56° Northeast 441 507 28,900 1,258 Climbing Los Angeles Center
Sun 07:51:46 PM 34.6847 -117.0861 56° Northeast 449 517 30,000 1,016 Climbing Los Angeles Center
Sun 07:52:48 PM 34.7633 -116.9658 51° Northeast 455 524 31,000 968 Climbing Los Angeles Center
Sun 07:53:50 PM 34.8517 -116.8583 45° Northeast 453 521 32,000 480 Climbing Los Angeles Center
Sun 07:54:53 PM 34.9408 -116.7489 45° Northeast 456 525 32,000  Level Los Angeles Center
Sun 07:55:55 PM 35.0472 -116.6183 45° Northeast 454 522 32,000 48 Level Los Angeles Center
Sun 07:56:57 PM 35.1361 -116.5092 45° Northeast 456 525 32,100 677 Climbing Los Angeles Center
Sun 07:57:59 PM 35.2222 -116.3964 47° Northeast 455 524 33,400 1,113 Climbing Los Angeles Center
Sun 07:59:01 PM 35.3036 -116.2783 50° Northeast 456 525 34,400 1,065 Climbing Los Angeles Center
Sun 08:00:03 PM 35.3844 -116.1619 50° Northeast 453 521 35,600 1,016 Climbing Los Angeles Center
Sun 08:01:05 PM 35.4828 -116.0244 49° Northeast 448 516 36,500 677 Climbing Los Angeles Center
Sun 08:02:07 PM 35.5656 -115.9064 49° Northeast 455 524 37,000 242 Climbing Los Angeles Center
Sun 08:03:09 PM 35.6569 -115.7747 49° Northeast 455 524 37,000  Level Los Angeles Center
Sun 08:04:11 PM 35.7400 -115.6558 49° Northeast 459 528 37,000  Level Los Angeles Center
Sun 08:05:13 PM 35.8203 -115.5378 50° Northeast 453 521 37,000  Level Los Angeles Center
Sun 08:06:15 PM 35.9000 -115.4197 50° Northeast 451 519 37,000  Level Los Angeles Center
Sun 08:07:17 PM 35.9797 -115.3019 50° Northeast 451 519 37,000  Level Los Angeles Center
Sun 08:08:20 PM 36.0742 -115.1631 50° Northeast 446 513 37,000  Level Los Angeles Center
Sun 08:09:22 PM 36.1214 -115.0189 68° East 455 524 37,000  Level Los Angeles Center
Sun 08:10:24 PM 36.1633 -114.8744 70° East 451 519 37,000  Level Los Angeles Center
Sun 08:11:26 PM 36.2056 -114.7278 70° East 452 520 37,000  Level Los Angeles Center
Sun 08:12:28 PM 36.2472 -114.5806 71° East 454 522 37,000  Level Los Angeles Center
Sun 08:13:30 PM 36.2881 -114.4333 71° East 454 522 37,000  Level Los Angeles Center
Sun 08:14:32 PM 36.3381 -114.2553 71° East 457 526 37,000  Level Los Angeles Center
Sun 08:15:34 PM 36.3797 -114.1083 71° East 455 524 37,000  Level Los Angeles Center
Sun 08:16:36 PM 36.4217 -113.9614 70° East 454 522 37,000  Level Los Angeles Center
Sun 08:17:38 PM 36.4606 -113.8150 72° East 449 517 37,000  Level Los Angeles Center
Sun 08:18:40 PM 36.5017 -113.6683 71° East 449 517 37,000  Level Los Angeles Center
Sun 08:19:42 PM 36.5431 -113.5181 71° East 452 520 37,000  Level Los Angeles Center
Sun 08:20:44 PM 36.5828 -113.3708 71° East 452 520 37,000  Level Los Angeles Center
Sun 08:21:46 PM 36.6308 -113.1942 71° East 452 520 37,000  Level Los Angeles Center
Sun 08:22:48 PM 36.6706 -113.0475 71° East 451 519 37,000  Level Los Angeles Center
Sun 08:23:50 PM 36.7094 -112.9006 72° East 449 517 37,000  Level Los Angeles Center
Sun 08:24:53 PM 36.7486 -112.7525 72° East 451 519 37,000  Level Los Angeles Center
Sun 08:25:55 PM 36.7878 -112.6028 72° East 454 522 37,000  Level Los Angeles Center
Sun 08:26:57 PM 36.8350 -112.4269 71° East 451 519 37,000  Level Los Angeles Center
Sun 08:27:59 PM 36.8728 -112.2778 72° East 452 520 37,000  Level Los Angeles Center
Sun 08:29:01 PM 36.9119 -112.1297 72° East 451 519 37,000  Level Los Angeles Center
Sun 08:30:12 PM 36.9578 -111.9531 72° East 451 519 37,000  Level Denver Center
Sun 08:31:13 PM 36.9950 -111.8033 73° East 452 520 37,000  Level Denver Center
Sun 08:32:15 PM 37.0344 -111.6531 72° East 455 524 37,000  Level Denver Center
Sun 08:33:17 PM 37.0722 -111.5031 72° East 455 524 37,000  Level Denver Center
Sun 08:34:19 PM 37.1172 -111.3231 73° East 454 522 37,000  Level Denver Center
Sun 08:35:20 PM 37.1539 -111.1733 73° East 451 519 37,000  Level Denver Center
Sun 08:36:22 PM 37.1919 -111.0217 72° East 456 525 37,000  Level Denver Center
Sun 08:37:24 PM 37.2294 -110.8722 72° East 454 522 37,000  Level Denver Center
Sun 08:38:26 PM 37.2667 -110.7194 73° East 458 527 37,000  Level Denver Center
Sun 08:39:27 PM 37.3031 -110.5678 73° East 457 526 37,000  Level Denver Center
Sun 08:40:29 PM 37.3475 -110.3850 73° East 457 526 37,000  Level Denver Center
Sun 08:41:31 PM 37.3856 -110.2317 73° East 460 529 37,000  Level Denver Center
Sun 08:42:32 PM 37.4181 -110.0917 74° East 460 529 37,000  Level Denver Center
Sun 08:43:34 PM 37.4592 -109.9194 73° East 461 531 37,000  Level Denver Center
Sun 08:44:36 PM 37.4942 -109.7731 73° East 457 526 37,000  Level Denver Center
Sun 08:45:37 PM 37.5331 -109.6006 74° East 459 528 37,000  Level Denver Center
Sun 08:46:39 PM 37.5686 -109.4508 73° East 463 533 37,000  Level Denver Center
Sun 08:47:40 PM 37.6083 -109.2794 74° East 457 526 37,000  Level Denver Center
Sun 08:48:42 PM 37.6431 -109.1272 74° East 468 539 37,000  Level Denver Center
Sun 08:49:44 PM 37.6775 -108.9781 74° East 464 534 37,000  Level Denver Center
Sun 08:50:45 PM 37.7175 -108.7997 74° East 472 543 37,000  Level Denver Center
Sun 08:51:47 PM 37.7514 -108.6478 74° East 472 543 37,000  Level Denver Center
Sun 08:52:48 PM 37.7906 -108.4714 74° East 467 537 37,000  Level Denver Center
Sun 08:53:50 PM 37.8236 -108.3194 75° East 468 539 37,000  Level Denver Center
Sun 08:54:52 PM 37.8572 -108.1686 74° East 465 535 37,000  Level Denver Center
Sun 08:55:53 PM 37.8956 -107.9903 75° East 469 540 37,000  Level Denver Center
Sun 08:56:55 PM 37.9292 -107.8403 74° East 464 534 37,000  Level Denver Center
Sun 08:57:56 PM 37.9667 -107.6611 75° East 469 540 37,000  Level Denver Center
Sun 08:58:58 PM 37.9997 -107.5089 75° East 468 539 37,000  Level Denver Center
Sun 09:00:00 PM 38.0322 -107.3572 75° East 466 536 37,000  Level Denver Center
Sun 09:01:01 PM 38.0697 -107.1819 75° East 463 533 37,000  Level Denver Center
Sun 09:02:03 PM 38.0981 -107.0381 76° East 464 534 37,000  Level Denver Center
Sun 09:03:04 PM 38.1319 -106.8806 75° East 465 535 37,000  Level Denver Center
Sun 09:04:06 PM 38.1717 -106.6856 75° East 465 535 37,000  Level Denver Center
Sun 09:05:08 PM 38.2022 -106.5331 76° East 467 537 37,000  Level Denver Center
Sun 09:06:09 PM 38.2350 -106.3700 76° East 468 539 37,000  Level Denver Center
Sun 09:07:11 PM 38.2681 -106.2069 75° East 467 537 37,000  Level Denver Center
Sun 09:08:13 PM 38.3003 -106.0478 75° East 464 534 37,000  Level Denver Center
Sun 09:09:15 PM 38.3353 -105.8694 76° East 464 534 37,000  Level Denver Center
Sun 09:10:16 PM 38.3628 -105.7233 76° East 467 537 37,000  Level Denver Center
Sun 09:11:18 PM 38.4006 -105.5344 76° East 468 539 37,000  Level Denver Center
Sun 09:12:20 PM 38.4314 -105.3736 76° East 465 535 37,000  Level Denver Center
Sun 09:13:21 PM 38.4631 -105.2122 76° East 466 536 37,000  Level Denver Center
Sun 09:14:23 PM 38.4928 -105.0511 77° East 465 535 37,000  Level Denver Center
Sun 09:15:25 PM 38.5236 -104.8908 76° East 463 533 37,000  Level Denver Center
Sun 09:16:26 PM 38.5544 -104.7283 76° East 466 536 37,000  Level Denver Center
Sun 09:17:28 PM 38.5836 -104.5692 77° East 461 531 37,000  Level Denver Center
Sun 09:18:30 PM 38.6119 -104.4092 77° East 459 528 37,000  Level Denver Center
Sun 09:19:32 PM 38.6472 -104.2214 76° East 463 533 37,000  Level Denver Center
Sun 09:20:33 PM 38.6731 -104.0789 77° East 460 529 37,000  Level Denver Center
Sun 09:21:35 PM 38.7056 -103.8994 77° East 462 532 37,000  Level Denver Center
Sun 09:22:37 PM 38.7325 -103.7453 77° East 463 533 37,000  Level Denver Center
Sun 09:23:39 PM 38.7647 -103.5633 77° East 467 537 37,000  Level Denver Center
Sun 09:24:40 PM 38.7903 -103.4133 78° East 465 535 37,000  Level Denver Center
Sun 09:25:42 PM 38.8186 -103.2486 78° East 470 541 37,000  Level Denver Center
Sun 09:26:44 PM 38.8475 -103.0836 77° East 470 541 37,000  Level Denver Center
Sun 09:27:46 PM 38.8792 -102.8917 78° East 470 541 37,000  Level Denver Center
Sun 09:28:47 PM 38.9083 -102.7247 77° East 470 541 37,000  Level Denver Center
Sun 09:29:49 PM 38.9336 -102.5686 78° East 467 537 37,000  Level Denver Center
Sun 09:30:51 PM 38.9597 -102.4111 78° East 470 541 37,000  Level Denver Center
Sun 09:31:53 PM 38.9897 -102.2297 78° East 467 537 37,000  Level Denver Center
Sun 09:32:55 PM 39.0144 -102.0750 78° East 463 533 37,000  Level Denver Center
Sun 09:33:56 PM 39.0433 -101.8947 78° East 462 532 37,000  Level Denver Center
Sun 09:34:58 PM 39.0683 -101.7394 78° East 463 533 37,000  Level Denver Center
Sun 09:36:00 PM 39.0953 -101.5633 79° East 466 536 37,000  Level Denver Center
Sun 09:37:02 PM 39.1203 -101.4067 78° East 466 536 37,000  Level Denver Center
Sun 09:38:04 PM 39.1489 -101.2228 79° East 471 542 37,000  Level Denver Center
Sun 09:39:05 PM 39.1719 -101.0669 79° East 466 536 37,000  Level Denver Center
Sun 09:40:07 PM 39.2008 -100.8828 79° East 468 539 37,000  Level Denver Center
Sun 09:41:09 PM 39.2228 -100.7261 80° East 467 537 37,000  Level Denver Center
Sun 09:42:11 PM 39.2497 -100.5422 79° East 468 539 37,000  Level Denver Center
Sun 09:43:13 PM 39.2733 -100.3875 79° East 463 533 37,000  Level Denver Center
Sun 09:44:14 PM 39.2997 -100.2053 79° East 463 533 37,000  Level Denver Center
Sun 09:45:16 PM 39.3217 -100.0508 80° East 460 529 37,000  Level Denver Center
Sun 09:46:18 PM 39.3442 -99.8939 79° East 464 534 37,000  Level Denver Center
Sun 09:47:45 PM 39.3769 -99.6594 80° East 462 532 37,000  Level Denver Center
Sun 09:48:46 PM 39.4025 -99.4772 80° East 464 534 37,000  Level Denver Center
Sun 09:49:48 PM 39.4239 -99.3203 80° East 465 535 37,000  Level Denver Center
Sun 09:50:50 PM 39.4494 -99.1314 80° East 466 536 37,000  Level Denver Center
Sun 09:51:52 PM 39.4711 -98.9658 80° East 466 536 37,000  Level Denver Center
Sun 09:52:54 PM 39.4922 -98.8003 81° East 468 539 37,000  Level Denver Center
Sun 09:53:56 PM 39.5139 -98.6367 80° East 463 533 37,000  Level Denver Center
Sun 09:54:58 PM 39.5353 -98.4694 81° East 469 540 37,000  Level Denver Center
Sun 09:55:59 PM 39.5569 -98.3047 80° East 467 537 37,000  Level Denver Center
Sun 09:57:19 PM 39.5875 -98.0631 81° East 471 542 37,000  Level Kansas City Center
Sun 09:58:20 PM 39.6083 -97.8969 81° East 469 540 37,000  Level Kansas City Center
Sun 09:59:21 PM 39.6267 -97.7383 81° East 463 533 37,000  Level Kansas City Center
Sun 10:00:03 PM 39.6428 -97.6083 81° East 469 540 37,000  Level Minneapolis Center
Sun 10:01:04 PM 39.6628 -97.4436 81° East 468 539 37,000  Level Minneapolis Center
Sun 10:02:05 PM 39.6817 -97.2769 82° East 467 537 37,000  Level Minneapolis Center
Sun 10:03:06 PM 39.7011 -97.1125 81° East 465 535 37,000  Level Minneapolis Center
Sun 10:03:26 PM 39.7081 -97.0650 79° East 466 536 37,000  Level Kansas City Center
Sun 10:04:27 PM 39.7275 -96.8978 81° East 466 536 37,000  Level Kansas City Center
Sun 10:05:29 PM 39.7475 -96.7072 82° East 466 536 37,000  Level Kansas City Center
Sun 10:06:30 PM 39.7661 -96.5417 82° East 465 535 37,000  Level Kansas City Center
Sun 10:07:31 PM 39.7858 -96.3644 82° East 467 537 37,000  Level Kansas City Center
Sun 10:08:32 PM 39.8028 -96.2097 82° East 462 532 37,000  Level Kansas City Center
Sun 10:09:34 PM 39.8203 -96.0422 82° East 464 534 37,000  Level Kansas City Center
Sun 10:10:35 PM 39.8403 -95.8569 82° East 467 537 37,000  Level Kansas City Center
Sun 10:11:36 PM 39.8572 -95.6958 82° East 467 537 37,000  Level Kansas City Center
Sun 10:12:37 PM 39.8739 -95.5339 82° East 469 540 37,000  Level Kansas City Center
Sun 10:13:39 PM 39.8931 -95.3433 82° East 472 543 37,000  Level Kansas City Center
Sun 10:14:40 PM 39.9089 -95.1831 83° East 467 537 37,000  Level Kansas City Center
Sun 10:15:41 PM 39.9250 -95.0217 83° East 466 536 37,000  Level Kansas City Center
Sun 10:16:42 PM 39.9433 -94.8328 83° East 468 539 37,000  Level Kansas City Center
Sun 10:17:44 PM 39.9592 -94.6722 83° East 467 537 37,000  Level Kansas City Center
Sun 10:18:45 PM 39.9761 -94.4836 83° East 468 539 37,000  Level Kansas City Center
Sun 10:19:46 PM 39.9917 -94.3214 83° East 468 539 37,000  Level Kansas City Center
Sun 10:20:47 PM 40.0200 -94.1644 77° East 467 537 37,000  Level Kansas City Center
Sun 10:21:48 PM 40.0539 -93.9886 76° East 471 542 37,000  Level Kansas City Center
Sun 10:22:50 PM 40.0853 -93.8275 76° East 465 535 37,000  Level Kansas City Center
Sun 10:23:51 PM 40.1189 -93.6650 75° East 465 535 37,000  Level Kansas City Center
Sun 10:24:52 PM 40.1517 -93.5022 75° East 467 537 37,000  Level Kansas City Center
Sun 10:25:53 PM 40.1844 -93.3403 75° East 466 536 37,000  Level Kansas City Center
Sun 10:26:54 PM 40.2178 -93.1781 75° East 465 535 37,000  Level Kansas City Center
Sun 10:27:55 PM 40.2550 -92.9889 75° East 462 532 37,000  Level Kansas City Center
Sun 10:28:57 PM 40.2856 -92.8331 76° East 460 529 37,000  Level Kansas City Center
Sun 10:29:58 PM 40.3219 -92.6517 75° East 461 531 37,000  Level Kansas City Center
Sun 10:30:59 PM 40.3447 -92.5092 78° East 464 534 37,000  Level Kansas City Center
Sun 10:32:00 PM 40.3842 -92.3211 75° East 464 534 37,000  Level Kansas City Center
Sun 10:33:01 PM 40.4136 -92.1608 76° East 459 528 37,000  Level Kansas City Center
Sun 10:34:03 PM 40.4439 -92.0003 76° East 457 526 37,000  Level Kansas City Center
Sun 10:35:04 PM 40.4731 -91.8389 77° East 458 527 37,000  Level Kansas City Center
Sun 10:36:05 PM 40.5022 -91.6786 76° East 456 525 37,000 -699 Level Kansas City Center
Sun 10:36:47 PM 40.5269 -91.5506 76° East 455 524 35,800 -2,272 Descending Chicago Center
Sun 10:37:48 PM 40.5578 -91.3914 76° East 455 524 33,100 -1,377 Descending Chicago Center
Sun 10:38:49 PM 40.6042 -91.2569 66° East 455 524 33,000 -49 Descending Chicago Center
Sun 10:39:51 PM 40.6653 -91.0769 66° East 450 518 33,000  Level Chicago Center
Sun 10:40:52 PM 40.7172 -90.9272 65° Northeast 449 517 33,000  Level Chicago Center
Sun 10:41:53 PM 40.7675 -90.7756 66° East 450 518 33,000  Level Chicago Center
Sun 10:42:54 PM 40.8297 -90.6319 60° Northeast 448 516 33,000  Level Chicago Center
Sun 10:43:55 PM 40.8986 -90.4956 56° Northeast 445 512 33,000  Level Chicago Center
Sun 10:44:56 PM 40.9683 -90.3567 56° Northeast 448 516 33,000  Level Chicago Center
Sun 10:45:57 PM 41.0367 -90.2181 57° Northeast 448 516 33,000  Level Chicago Center
Sun 10:46:58 PM 41.0939 -90.0667 63° Northeast 459 528 33,000 -787 Level Chicago Center
Sun 10:47:59 PM 41.1433 -89.9092 67° East 459 528 31,400 -2,293 Descending Chicago Center
Sun 10:49:01 PM 41.1925 -89.7522 67° East 458 527 28,300 -2,732 Descending Chicago Center
Sun 10:50:02 PM 41.2411 -89.5992 67° East 449 517 25,800 -2,410 Descending Chicago Center
Sun 10:51:03 PM 41.2864 -89.4519 68° East 433 498 23,400 -2,311 Descending Chicago Center
Sun 10:52:04 PM 41.3300 -89.3086 68° East 420 483 21,100 -2,311 Descending Chicago Center
Sun 10:53:05 PM 41.3753 -89.1581 68° East 401 461 18,700 -2,361 Descending Chicago Center
Sun 10:54:06 PM 41.4153 -89.0250 68° East 390 449 16,300 -2,213 Descending Chicago Center
Sun 10:55:07 PM 41.4547 -88.8967 68° East 378 435 14,200 -2,066 Descending Chicago Center
Sun 10:56:08 PM 41.4922 -88.7733 68° East 363 418 12,100 -1,574 Descending Chicago Center
Sun 10:57:09 PM 41.5311 -88.6567 66° East 347 399 11,000 -541 Descending Chicago Center
Sun 10:58:10 PM 41.5747 -88.5458 62° Northeast 338 389 11,000  Level Chicago Center
Sun 10:59:11 PM 41.6233 -88.4394 59° Northeast 336 387 11,000  Level Chicago Center
Sun 11:00:12 PM 41.6811 -88.3414 52° Northeast 335 386 11,000 -246 Level Chicago Center
Sun 11:01:13 PM 41.7453 -88.2319 52° Northeast 305 351 10,500 -1,180 Descending Chicago Center
Sun 11:02:14 PM 41.7931 -88.1514 51° Northeast 278 320 8,600 -1,574 Descending Chicago Center
Sun 11:03:15 PM 41.8594 -88.1178 21° North 281 323 7,300 -1,129 Descending Chicago Center
Sun 11:03:39 PM 41.9000 -88.1167 North 267 307 7,000 -143 Descending Chicago TRACON
Sun 11:04:39 PM 41.9667 -88.1167 360° North 230 265 7,100 -247 Climbing Chicago TRACON
Sun 11:05:16 PM 41.9911 -88.1306 337° Northwest 234 269 6,600 -1,041 Descending Chicago Center
Sun 11:06:17 PM 42.0361 -88.1892 316° Northwest 228 262 5,400 -1,082 Descending Chicago Center
Sun 11:07:18 PM 42.0878 -88.2314 329° Northwest 233 268 4,400 -689 Descending Chicago Center
Sun 11:08:19 PM 42.1303 -88.1675 48° Northeast 232 267 4,000 -393 Descending Chicago Center

Login

Don't have an account? Register now (free) for customized features, flight alerts, and more!